Time;durP1;ratioP1;P1;durP2;ratioP2;P2;SDS_P1;SDS_P2;PMS_P1;PMS_P2;Temp;Humidity;BMP_temperature;BMP_pressure;BME280_temperature;BME280_humidity;BME280_pressure;Samples;Min_cycle;Max_cycle;Signal;HPM_P1;HPM_P2
2023/01/30 00:01:16;;;;;;;3.08;1.70;;;21.30;51.80;;;;;;5018672;28;20029;-60
2023/01/30 00:03:42;;;;;;;2.53;1.60;;;21.30;52.30;;;;;;5022587;28;20036;-60
2023/01/30 00:06:07;;;;;;;2.47;1.40;;;21.20;51.80;;;;;;5018820;28;20532;-61
2023/01/30 00:08:33;;;;;;;2.80;1.52;;;21.20;51.80;;;;;;5021169;28;20130;-61
2023/01/30 00:11:07;;;;;;;2.45;1.55;;;21.20;51.80;;;;;;5018532;28;20030;-60
2023/01/30 00:13:33;;;;;;;1.90;1.35;;;21.20;51.90;;;;;;5019913;28;20018;-60
2023/01/30 00:15:59;;;;;;;2.00;1.30;;;21.20;52.00;;;;;;5019419;28;20080;-60
2023/01/30 00:18:25;;;;;;;2.20;1.40;;;21.10;51.90;;;;;;5035845;28;20131;-60
2023/01/30 00:21:03;;;;;;;2.80;1.63;;;21.10;51.90;;;;;;5017968;28;20030;-60
2023/01/30 00:23:32;;;;;;;2.72;1.48;;;21.10;52.00;;;;;;5017558;28;20074;-60
2023/01/30 00:25:57;;;;;;;2.33;1.50;;;21.10;52.00;;;;;;5018023;28;20113;-60
2023/01/30 00:28:24;;;;;;;2.00;1.30;;;21.00;52.00;;;;;;5017410;28;20109;-60
2023/01/30 00:30:51;;;;;;;1.55;1.20;;;21.10;52.10;;;;;;5016854;28;20117;-61
2023/01/30 00:33:18;;;;;;;2.72;1.10;;;21.00;52.00;;;;;;5018772;28;20032;-61
2023/01/30 00:35:48;;;;;;;2.53;1.50;;;21.00;52.10;;;;;;5015727;28;20582;-59
2023/01/30 00:38:14;;;;;;;2.00;1.35;;;20.90;52.10;;;;;;5019919;28;20038;-60
2023/01/30 00:40:39;;;;;;;2.25;1.45;;;21.00;52.10;;;;;;5020022;28;20100;-61
2023/01/30 00:48:37;;;;;;;2.28;1.40;;;20.90;52.20;;;;;;5024316;28;20044;-62
2023/01/30 00:51:03;;;;;;;1.98;1.20;;;20.90;52.20;;;;;;5022678;28;20026;-62
2023/01/30 00:53:29;;;;;;;1.95;1.30;;;20.90;52.20;;;;;;5022975;28;20121;-60
2023/01/30 00:55:55;;;;;;;2.28;1.30;;;20.80;52.20;;;;;;5023587;28;20403;-61
2023/01/30 00:58:21;;;;;;;2.40;1.30;;;20.80;52.30;;;;;;5022598;28;20116;-60
2023/01/30 01:00:48;;;;;;;2.35;1.40;;;20.80;52.20;;;;;;5024342;28;20026;-61
2023/01/30 01:03:13;;;;;;;2.40;1.40;;;20.80;52.30;;;;;;5022586;28;20030;-61
2023/01/30 01:05:39;;;;;;;2.55;1.40;;;20.80;52.40;;;;;;5022584;28;20157;-60
2023/01/30 01:08:05;;;;;;;2.10;1.23;;;20.70;52.30;;;;;;5022734;28;20036;-61
2023/01/30 01:10:31;;;;;;;2.03;1.20;;;20.70;52.90;;;;;;5022266;28;20486;-60
2023/01/30 01:12:57;;;;;;;1.75;1.25;;;20.70;52.40;;;;;;5023732;28;20080;-62
2023/01/30 01:15:24;;;;;;;1.58;1.20;;;20.70;52.40;;;;;;5019208;28;20477;-61
2023/01/30 01:17:50;;;;;;;1.60;1.20;;;20.70;52.40;;;;;;5022853;28;20033;-60
2023/01/30 01:20:18;;;;;;;1.70;1.23;;;20.60;52.40;;;;;;5022199;28;20106;-60
2023/01/30 01:22:43;;;;;;;2.63;1.10;;;20.60;52.40;;;;;;5018899;28;20034;-61
2023/01/30 01:25:10;;;;;;;1.83;1.30;;;20.60;52.40;;;;;;5020754;28;20034;-62
2023/01/30 01:27:37;;;;;;;1.80;1.20;;;20.60;52.40;;;;;;5022813;28;20172;-61
2023/01/30 01:30:04;;;;;;;1.92;1.13;;;20.60;52.40;;;;;;5020811;28;20140;-62
2023/01/30 01:32:29;;;;;;;2.70;1.30;;;20.60;52.50;;;;;;5020798;28;20029;-62
2023/01/30 01:34:55;;;;;;;1.73;1.10;;;20.50;52.50;;;;;;5022485;28;20040;-61
2023/01/30 01:37:20;;;;;;;2.05;1.40;;;20.50;52.50;;;;;;5023327;28;20030;-61
2023/01/30 01:42:34;;;;;;;2.45;1.30;;;20.50;52.50;;;;;;5020784;28;20033;-61
2023/01/30 01:45:14;;;;;;;;;;;20.50;52.50;;;;;;5022409;28;20030;-61
2023/01/30 01:47:46;;;;;;;1.75;1.17;;;20.50;52.50;;;;;;5019286;28;20338;-62
2023/01/30 01:50:21;;;;;;;1.80;1.13;;;20.50;52.50;;;;;;5020581;28;20369;-61
2023/01/30 01:52:49;;;;;;;2.00;1.10;;;20.40;52.50;;;;;;5022034;28;20028;-61
2023/01/30 01:55:15;;;;;;;1.55;1.20;;;20.40;52.50;;;;;;5019558;28;20132;-61
2023/01/30 01:57:45;;;;;;;1.75;1.17;;;20.40;53.10;;;;;;5025273;28;20522;-62
2023/01/30 02:00:14;;;;;;;1.65;1.10;;;20.40;52.70;;;;;;5021376;28;20030;-61
2023/01/30 02:02:48;;;;;;;2.03;1.10;;;20.40;52.60;;;;;;5021558;28;20049;-61
2023/01/30 02:05:16;;;;;;;1.88;1.23;;;20.40;52.70;;;;;;5019109;28;20038;-63
2023/01/30 02:07:54;;;;;;;1.90;1.10;;;20.40;52.70;;;;;;5020506;28;20097;-61
2023/01/30 02:10:24;;;;;;;1.35;0.95;;;20.30;52.70;;;;;;5021932;28;20018;-61
2023/01/30 02:12:50;;;;;;;1.63;1.00;;;20.30;52.70;;;;;;5020284;28;20377;-62
2023/01/30 02:15:17;;;;;;;2.10;1.10;;;20.30;52.70;;;;;;5038327;28;20037;-61
2023/01/30 02:17:43;;;;;;;1.60;1.10;;;20.30;52.70;;;;;;5020618;28;20044;-61
2023/01/30 02:20:48;;;;;;;1.73;1.20;;;20.30;52.70;;;;;;5024236;28;20037;-61
2023/01/30 02:23:34;;;;;;;1.65;1.10;;;20.30;52.80;;;;;;4997381;28;20073;-61
2023/01/30 02:26:40;;;;;;;1.80;1.10;;;20.30;52.80;;;;;;5021325;28;20061;-61
2023/01/30 02:29:42;;;;;;;1.50;1.05;;;20.20;52.70;;;;;;5018357;28;20109;-61
2023/01/30 02:32:38;;;;;;;1.70;1.17;;;20.20;52.80;;;;;;5022097;28;20018;-62
2023/01/30 02:35:15;;;;;;;1.58;1.00;;;20.20;52.80;;;;;;5020422;28;20043;-62
2023/01/30 02:37:59;;;;;;;1.70;1.02;;;20.20;52.80;;;;;;5021865;28;20025;-61
2023/01/30 02:40:39;;;;;;;1.52;1.10;;;20.20;52.80;;;;;;5035099;28;20068;-62
2023/01/30 02:43:25;;;;;;;1.80;1.13;;;20.20;52.80;;;;;;5021074;28;20204;-62
2023/01/30 02:46:13;;;;;;;1.80;1.20;;;20.20;52.80;;;;;;5019936;28;20029;-61
2023/01/30 02:48:47;;;;;;;1.30;1.00;;;20.10;52.80;;;;;;5018539;28;20057;-61
2023/01/30 02:51:21;;;;;;;1.40;0.93;;;20.10;52.80;;;;;;5020719;28;20038;-60
2023/01/30 02:53:49;;;;;;;1.10;0.98;;;20.10;52.80;;;;;;5021463;28;20033;-60
2023/01/30 02:56:14;;;;;;;1.77;1.20;;;20.10;52.90;;;;;;5022133;28;20033;-61
2023/01/30 02:58:48;;;;;;;0.93;0.80;;;20.10;52.90;;;;;;5022260;28;20083;-61
2023/01/30 03:01:42;;;;;;;1.33;0.93;;;20.10;52.90;;;;;;5015785;28;20523;-61
2023/01/30 03:04:28;;;;;;;1.13;0.93;;;20.10;52.90;;;;;;5021920;28;20113;-62
2023/01/30 03:07:20;;;;;;;1.27;0.90;;;20.00;52.80;;;;;;5021968;28;20044;-60
2023/01/30 03:10:05;;;;;;;1.48;1.10;;;20.00;52.90;;;;;;5019664;28;20129;-61
2023/01/30 03:12:40;;;;;;;1.98;1.10;;;20.00;52.90;;;;;;5021313;28;20476;-61
2023/01/30 03:15:21;;;;;;;1.50;1.00;;;20.00;52.90;;;;;;5020782;28;20678;-60
2023/01/30 03:17:47;;;;;;;1.23;0.90;;;20.00;52.90;;;;;;5020028;28;20053;-62
2023/01/30 03:20:15;;;;;;;1.50;1.00;;;20.00;52.90;;;;;;5020624;28;20088;-60
2023/01/30 03:22:40;;;;;;;1.42;1.00;;;20.00;52.90;;;;;;5019159;28;20025;-62
2023/01/30 03:25:10;;;;;;;1.98;1.10;;;20.00;52.90;;;;;;5019859;28;20076;-60
2023/01/30 03:27:37;;;;;;;1.17;0.88;;;20.00;52.90;;;;;;5020592;28;20391;-59
2023/01/30 03:30:03;;;;;;;1.25;0.90;;;20.00;52.90;;;;;;5018226;28;20108;-60
2023/01/30 03:32:28;;;;;;;1.38;0.80;;;20.00;52.90;;;;;;5021637;28;20100;-61
2023/01/30 03:34:54;;;;;;;1.08;0.80;;;20.00;52.90;;;;;;5017232;28;20033;-60
2023/01/30 03:37:19;;;;;;;1.25;0.90;;;20.00;52.90;;;;;;5022189;28;20477;-60
2023/01/30 03:39:45;;;;;;;1.50;1.02;;;20.00;52.90;;;;;;5018137;28;20373;-60
2023/01/30 03:42:11;;;;;;;1.65;1.08;;;19.90;52.90;;;;;;5033940;28;20026;-61
2023/01/30 03:44:36;;;;;;;1.58;1.00;;;19.90;52.90;;;;;;5017543;28;20392;-59
2023/01/30 03:47:02;;;;;;;1.25;1.00;;;19.90;52.90;;;;;;5019255;28;20041;-60
2023/01/30 03:49:27;;;;;;;0.95;0.80;;;19.90;52.90;;;;;;5019701;28;20053;-59
2023/01/30 03:51:53;;;;;;;1.25;1.00;;;19.90;52.90;;;;;;5018323;28;20057;-60
2023/01/30 03:54:19;;;;;;;1.20;0.90;;;19.90;52.90;;;;;;5020048;28;20063;-60
2023/01/30 03:56:44;;;;;;;1.30;1.00;;;19.90;53.00;;;;;;5018979;28;20468;-60
2023/01/30 03:59:10;;;;;;;1.00;0.80;;;19.90;53.00;;;;;;5021235;28;20120;-60
2023/01/30 04:01:35;;;;;;;1.80;1.02;;;19.80;53.00;;;;;;5015751;28;20592;-59
2023/01/30 04:04:01;;;;;;;1.23;0.90;;;19.80;53.00;;;;;;5019146;28;20048;-60
2023/01/30 04:06:27;;;;;;;1.13;0.88;;;19.80;53.00;;;;;;5019457;28;20022;-59
2023/01/30 04:08:53;;;;;;;1.35;0.95;;;19.80;53.00;;;;;;5019232;28;20036;-61
2023/01/30 04:11:19;;;;;;;1.27;0.90;;;19.80;53.00;;;;;;5019722;28;20030;-60
2023/01/30 04:13:45;;;;;;;1.40;1.02;;;19.80;53.00;;;;;;5019512;28;20026;-61
2023/01/30 04:16:36;;;;;;;1.83;1.00;;;19.80;53.00;;;;;;5015686;28;20033;-61
2023/01/30 04:19:02;;;;;;;0.93;0.70;;;19.80;53.00;;;;;;5016929;28;20492;-60
2023/01/30 04:21:27;;;;;;;1.30;0.90;;;19.80;53.00;;;;;;5015501;28;20119;-60
2023/01/30 04:23:53;;;;;;;1.20;0.90;;;19.80;53.00;;;;;;5016874;28;20042;-60
2023/01/30 04:26:20;;;;;;;1.35;1.00;;;19.80;53.10;;;;;;5013772;28;20467;-61
2023/01/30 04:28:45;;;;;;;1.30;0.93;;;19.80;53.10;;;;;;5020166;28;20096;-61
2023/01/30 04:31:11;;;;;;;0.93;0.82;;;19.80;53.10;;;;;;5021731;28;20029;-61
2023/01/30 04:33:38;;;;;;;0.98;0.85;;;19.80;53.10;;;;;;5015468;28;20018;-61
2023/01/30 04:36:06;;;;;;;1.40;0.98;;;19.70;53.10;;;;;;5019211;28;20021;-60
2023/01/30 04:38:32;;;;;;;1.15;0.90;;;19.80;53.10;;;;;;5020289;28;20037;-62
2023/01/30 04:40:58;;;;;;;1.40;0.90;;;19.70;53.10;;;;;;5018765;28;20032;-61
2023/01/30 04:43:26;;;;;;;1.20;0.90;;;19.70;53.10;;;;;;5019640;28;20025;-60
2023/01/30 04:45:52;;;;;;;1.45;1.00;;;19.70;53.10;;;;;;5019161;28;20029;-60
2023/01/30 04:48:19;;;;;;;1.00;0.80;;;19.70;53.10;;;;;;5017032;28;20121;-60
2023/01/30 04:50:47;;;;;;;1.08;0.88;;;19.70;53.20;;;;;;5019927;28;20026;-60
2023/01/30 04:53:14;;;;;;;1.23;0.90;;;19.70;53.20;;;;;;5032789;28;20434;-60
2023/01/30 04:55:39;;;;;;;1.20;0.90;;;19.70;53.30;;;;;;5018612;28;20043;-60
2023/01/30 04:58:05;;;;;;;1.55;0.90;;;19.60;53.30;;;;;;5015139;28;20101;-62
2023/01/30 05:00:31;;;;;;;2.20;0.95;;;19.70;53.40;;;;;;5020444;28;20038;-62
2023/01/30 05:02:56;;;;;;;1.70;1.00;;;19.60;53.40;;;;;;5015893;28;20497;-61
2023/01/30 05:05:23;;;;;;;1.10;0.90;;;19.60;53.40;;;;;;5017479;28;20120;-60
2023/01/30 05:07:48;;;;;;;1.20;0.90;;;19.60;53.50;;;;;;5017833;28;20801;-60
2023/01/30 05:10:14;;;;;;;0.93;0.80;;;19.60;53.50;;;;;;5020742;28;20122;-61
2023/01/30 05:12:40;;;;;;;1.15;0.90;;;19.60;53.50;;;;;;5017753;28;20072;-61
2023/01/30 05:15:06;;;;;;;1.63;1.00;;;19.60;53.60;;;;;;5019038;28;20033;-60
2023/01/30 05:17:32;;;;;;;0.85;0.73;;;19.60;53.60;;;;;;5020620;28;20596;-61
2023/01/30 05:19:58;;;;;;;1.23;0.90;;;19.60;53.50;;;;;;5025487;28;20125;-60
2023/01/30 05:22:24;;;;;;;1.05;0.80;;;19.60;53.50;;;;;;5020829;28;20109;-61
2023/01/30 05:24:49;;;;;;;1.00;0.90;;;19.60;53.50;;;;;;5020759;28;20040;-60
2023/01/30 05:27:15;;;;;;;1.27;0.80;;;19.60;53.60;;;;;;5017500;28;20507;-62
2023/01/30 05:29:40;;;;;;;1.35;0.88;;;19.60;53.60;;;;;;5019247;28;20064;-60
2023/01/30 05:32:06;;;;;;;1.90;1.00;;;19.60;53.60;;;;;;5020930;28;20037;-61
2023/01/30 05:34:32;;;;;;;1.00;0.73;;;19.60;53.60;;;;;;5018258;28;20171;-60
2023/01/30 05:36:58;;;;;;;1.20;0.90;;;19.60;53.60;;;;;;5019812;28;20030;-62
2023/01/30 05:39:23;;;;;;;1.13;0.80;;;19.60;53.60;;;;;;5022642;28;20113;-60
2023/01/30 05:41:49;;;;;;;1.45;0.90;;;19.60;53.70;;;;;;5021621;28;20032;-61
2023/01/30 05:44:14;;;;;;;1.45;0.90;;;19.60;53.70;;;;;;5018991;28;20718;-61
2023/01/30 05:46:40;;;;;;;1.13;0.80;;;19.50;53.60;;;;;;5020685;28;20037;-62
2023/01/30 05:49:06;;;;;;;1.00;0.80;;;19.50;53.70;;;;;;5021070;28;20401;-61
2023/01/30 05:51:32;;;;;;;1.48;0.90;;;19.50;53.80;;;;;;5022933;28;20104;-60
2023/01/30 05:53:58;;;;;;;0.93;0.80;;;19.50;53.90;;;;;;5023504;28;20067;-61
2023/01/30 05:56:23;;;;;;;1.63;1.00;;;19.60;54.10;;;;;;5022517;28;20026;-60
2023/01/30 05:58:50;;;;;;;1.00;0.80;;;19.50;54.10;;;;;;5022909;28;20477;-59
2023/01/30 06:01:16;;;;;;;1.30;0.90;;;19.60;54.10;;;;;;5020241;28;20037;-61
2023/01/30 06:03:42;;;;;;;1.33;0.90;;;19.50;54.00;;;;;;5021052;28;20104;-60
2023/01/30 06:06:09;;;;;;;1.25;0.90;;;19.50;54.00;;;;;;5022138;28;20057;-60
2023/01/30 06:08:34;;;;;;;1.50;1.00;;;19.50;54.00;;;;;;5019557;28;20058;-60
2023/01/30 06:11:02;;;;;;;1.80;0.93;;;19.50;54.10;;;;;;5020374;28;20068;-60
2023/01/30 06:13:28;;;;;;;1.55;1.13;;;19.50;54.00;;;;;;5022977;28;20022;-61
2023/01/30 06:15:53;;;;;;;1.67;1.10;;;19.50;54.00;;;;;;5024012;28;20033;-60
2023/01/30 06:18:19;;;;;;;1.58;1.00;;;19.50;54.00;;;;;;5021211;28;20026;-60
2023/01/30 06:20:51;;;;;;;1.63;1.00;;;19.50;54.50;;;;;;5021005;28;20068;-60
2023/01/30 06:23:17;;;;;;;1.45;0.90;;;19.50;54.10;;;;;;5023943;28;20045;-60
2023/01/30 06:25:47;;;;;;;1.88;0.95;;;19.50;54.00;;;;;;5018540;28;20385;-61
2023/01/30 06:28:14;;;;;;;1.88;1.10;;;19.50;54.00;;;;;;5021107;28;20365;-62
2023/01/30 06:30:39;;;;;;;1.10;0.80;;;19.50;54.00;;;;;;5021994;28;20033;-60
2023/01/30 06:33:05;;;;;;;1.20;0.90;;;19.50;54.00;;;;;;5021580;28;20546;-60
2023/01/30 06:35:31;;;;;;;1.33;0.95;;;19.50;54.00;;;;;;5018467;28;20099;-62
2023/01/30 06:37:56;;;;;;;1.55;0.93;;;19.50;54.00;;;;;;5019493;28;20029;-60
2023/01/30 06:40:22;;;;;;;2.22;1.10;;;19.50;54.00;;;;;;5021340;28;20021;-61
2023/01/30 06:42:48;;;;;;;1.77;1.10;;;19.50;54.10;;;;;;5017400;28;20500;-60
2023/01/30 06:45:16;;;;;;;2.63;1.10;;;19.50;54.10;;;;;;5020480;28;20307;-60
2023/01/30 06:47:51;;;;;;;1.35;0.90;;;19.50;54.10;;;;;;5018803;28;20492;-60
2023/01/30 06:50:19;;;;;;;2.92;1.10;;;19.40;54.00;;;;;;5021669;28;20025;-60
2023/01/30 06:52:46;;;;;;;2.05;1.20;;;19.50;54.50;;;;;;5024181;28;20025;-62
2023/01/30 06:55:14;;;;;;;1.40;1.05;;;19.50;54.30;;;;;;5018988;28;20037;-62
2023/01/30 06:57:40;;;;;;;1.88;1.10;;;19.50;54.20;;;;;;5019217;28;20163;-61
2023/01/30 07:00:09;;;;;;;1.98;1.00;;;19.50;54.20;;;;;;5016722;28;20022;-63
2023/01/30 07:02:35;;;;;;;1.90;1.20;;;19.50;54.20;;;;;;5021838;28;20171;-61
2023/01/30 07:05:02;;;;;;;2.45;1.15;;;19.40;54.20;;;;;;5020214;28;20112;-61
2023/01/30 07:07:28;;;;;;;1.60;1.20;;;19.50;54.20;;;;;;5022833;28;20472;-61
2023/01/30 07:09:53;;;;;;;3.05;1.30;;;19.40;54.20;;;;;;5020402;28;20022;-61
2023/01/30 07:12:19;;;;;;;2.33;1.17;;;19.40;54.20;;;;;;5017363;28;20543;-61
2023/01/30 07:14:45;;;;;;;1.85;1.00;;;19.50;54.20;;;;;;5017778;28;20065;-61
2023/01/30 07:17:10;;;;;;;2.25;1.20;;;19.50;54.30;;;;;;5020322;28;20021;-61
2023/01/30 07:19:37;;;;;;;2.33;1.20;;;19.40;54.20;;;;;;5017846;28;20034;-61
2023/01/30 07:22:03;;;;;;;2.35;1.20;;;19.40;54.20;;;;;;5020784;28;20398;-61
2023/01/30 07:24:29;;;;;;;2.10;1.00;;;19.50;54.20;;;;;;5024626;28;20114;-62
2023/01/30 07:26:55;;;;;;;2.08;1.10;;;19.40;54.20;;;;;;5018717;28;20472;-60
2023/01/30 07:29:20;;;;;;;1.75;1.08;;;19.40;54.10;;;;;;5016822;28;20492;-61
2023/01/30 07:31:46;;;;;;;2.10;1.17;;;19.40;54.20;;;;;;5018713;28;20021;-61
2023/01/30 07:34:12;;;;;;;2.13;1.10;;;19.40;54.20;;;;;;5019376;28;20028;-62
2023/01/30 07:36:37;;;;;;;1.63;1.17;;;19.40;54.20;;;;;;5018424;28;20030;-61
2023/01/30 07:39:04;;;;;;;1.90;1.20;;;19.40;54.10;;;;;;5019478;28;20464;-62
2023/01/30 07:41:29;;;;;;;3.10;1.20;;;19.40;54.10;;;;;;5022147;28;20025;-62
2023/01/30 07:43:55;;;;;;;2.78;1.50;;;19.40;54.10;;;;;;5033589;28;20088;-61
2023/01/30 07:46:20;;;;;;;2.55;1.30;;;19.40;54.10;;;;;;5019019;28;20453;-61
2023/01/30 07:48:46;;;;;;;1.92;1.05;;;19.40;54.10;;;;;;5021443;28;20049;-61
2023/01/30 07:51:12;;;;;;;2.20;1.20;;;19.40;54.10;;;;;;5019965;28;20549;-64
2023/01/30 07:53:37;;;;;;;2.65;1.40;;;19.40;54.10;;;;;;5020096;28;20032;-62
2023/01/30 07:56:09;;;;;;;2.55;1.20;;;19.40;54.20;;;;;;5017303;28;20468;-62
2023/01/30 07:58:35;;;;;;;2.58;1.20;;;19.40;54.10;;;;;;5019408;28;20053;-63
2023/01/30 08:01:01;;;;;;;2.42;1.30;;;19.40;54.10;;;;;;5017867;28;20503;-61
2023/01/30 08:03:27;;;;;;;2.03;1.27;;;19.40;54.10;;;;;;5015559;28;20055;-61
2023/01/30 08:05:53;;;;;;;2.42;1.50;;;19.40;54.10;;;;;;5019142;28;20442;-63
2023/01/30 08:08:19;;;;;;;2.28;1.33;;;19.40;54.10;;;;;;5020288;28;20038;-61
2023/01/30 08:10:48;;;;;;;1.83;1.30;;;19.40;54.10;;;;;;5015419;28;20487;-62
2023/01/30 08:13:14;;;;;;;2.33;1.20;;;19.40;54.10;;;;;;5021132;28;20094;-62
2023/01/30 08:15:39;;;;;;;2.10;1.05;;;19.30;54.00;;;;;;5019247;28;20099;-61
2023/01/30 08:18:06;;;;;;;2.00;1.23;;;19.40;54.00;;;;;;5018737;28;20033;-61
2023/01/30 08:20:32;;;;;;;2.03;1.15;;;19.30;54.00;;;;;;5016769;28;20026;-62
2023/01/30 08:22:58;;;;;;;2.20;1.15;;;19.30;54.00;;;;;;5019659;28;20087;-63
2023/01/30 08:25:24;;;;;;;2.17;1.40;;;19.30;54.00;;;;;;5017629;28;20021;-62
2023/01/30 08:27:51;;;;;;;2.22;1.40;;;19.30;54.00;;;;;;5018458;28;20030;-62
2023/01/30 08:30:17;;;;;;;1.88;1.17;;;19.30;54.00;;;;;;5017928;28;20084;-62
2023/01/30 08:32:43;;;;;;;2.50;1.23;;;19.30;53.90;;;;;;5014942;28;20034;-63
2023/01/30 08:35:09;;;;;;;3.00;1.20;;;19.30;53.90;;;;;;5019563;28;20337;-61
2023/01/30 08:37:37;;;;;;;1.88;1.23;;;19.30;53.90;;;;;;5017700;28;20131;-61
2023/01/30 08:40:03;;;;;;;2.88;1.40;;;19.30;53.90;;;;;;5019505;28;20026;-62
2023/01/30 08:42:29;;;;;;;1.73;1.13;;;19.30;53.90;;;;;;5017916;28;20512;-61
2023/01/30 08:44:54;;;;;;;2.38;1.30;;;19.30;53.90;;;;;;5017458;28;20096;-61
2023/01/30 08:47:20;;;;;;;2.03;1.30;;;19.30;53.90;;;;;;5019213;28;20100;-61
2023/01/30 08:49:45;;;;;;;2.95;1.50;;;19.30;53.90;;;;;;5019254;28;20053;-63
2023/01/30 08:52:11;;;;;;;2.85;1.33;;;19.30;53.80;;;;;;5018990;28;20096;-63
2023/01/30 08:54:36;;;;;;;2.75;1.30;;;19.30;53.90;;;;;;5020682;28;20021;-62
2023/01/30 08:57:02;;;;;;;2.30;1.40;;;19.30;53.80;;;;;;5018604;28;20645;-61
2023/01/30 08:59:27;;;;;;;1.98;1.17;;;19.30;53.90;;;;;;5020928;28;20069;-61
2023/01/30 09:01:53;;;;;;;2.50;1.35;;;19.30;53.80;;;;;;5020930;28;20084;-62
2023/01/30 09:04:19;;;;;;;2.67;1.60;;;19.30;53.80;;;;;;5022603;28;20037;-62
2023/01/30 09:06:44;;;;;;;2.85;1.30;;;19.30;53.80;;;;;;5019383;28;20025;-62
2023/01/30 09:09:10;;;;;;;2.38;1.30;;;19.30;53.80;;;;;;5020554;28;20029;-62
2023/01/30 09:11:35;;;;;;;4.00;1.30;;;19.30;53.80;;;;;;5022749;28;20036;-62
2023/01/30 09:14:01;;;;;;;1.88;1.23;;;19.30;53.80;;;;;;5022576;28;20014;-62
2023/01/30 09:16:26;;;;;;;2.88;1.30;;;19.20;53.70;;;;;;5019823;28;20030;-62
2023/01/30 09:18:52;;;;;;;2.20;1.20;;;19.20;53.70;;;;;;5021256;28;20030;-61
2023/01/30 09:21:18;;;;;;;2.05;1.20;;;19.20;53.70;;;;;;5018888;28;20030;-62
2023/01/30 09:23:43;;;;;;;2.00;1.30;;;19.20;53.70;;;;;;5024104;28;20061;-63
2023/01/30 09:26:09;;;;;;;2.78;1.20;;;19.20;53.70;;;;;;5021239;28;20057;-62
2023/01/30 09:28:35;;;;;;;2.28;1.20;;;19.20;53.70;;;;;;5017087;28;20034;-63
2023/01/30 09:31:01;;;;;;;2.33;1.10;;;19.20;53.70;;;;;;5021392;28;20018;-63
2023/01/30 09:33:27;;;;;;;1.80;1.10;;;19.20;53.60;;;;;;5023781;28;20045;-62
2023/01/30 09:35:53;;;;;;;2.15;1.15;;;19.20;53.60;;;;;;5022443;28;20534;-64
2023/01/30 09:38:19;;;;;;;1.98;1.13;;;19.20;53.60;;;;;;5020865;28;20030;-64
2023/01/30 09:40:59;;;;;;;1.73;1.02;;;19.20;53.60;;;;;;5021634;28;20389;-63
2023/01/30 09:43:42;;;;;;;2.20;1.13;;;19.20;53.60;;;;;;5021371;28;20047;-63
2023/01/30 09:46:31;;;;;;;2.67;1.30;;;19.20;53.60;;;;;;5020594;28;20022;-63
2023/01/30 09:49:02;;;;;;;2.00;1.20;;;19.20;53.60;;;;;;5008332;28;20038;-63
2023/01/30 09:52:07;;;;;;;2.15;1.23;;;19.20;53.60;;;;;;5021846;28;20026;-63
2023/01/30 09:54:39;;;;;;;2.17;1.35;;;19.20;53.50;;;;;;5025809;28;20032;-63
2023/01/30 09:57:07;;;;;;;2.20;1.20;;;19.20;53.50;;;;;;5018240;28;20026;-64
2023/01/30 10:00:05;;;;;;;1.55;1.10;;;19.20;53.50;;;;;;5022145;28;20025;-65
2023/01/30 10:02:41;;;;;;;2.05;1.30;;;19.20;53.50;;;;;;5012085;28;20121;-65
2023/01/30 10:05:07;;;;;;;1.58;1.00;;;19.20;53.50;;;;;;5020644;28;20033;-64
2023/01/30 10:07:59;;;;;;;1.75;1.20;;;19.20;53.40;;;;;;5021056;28;20030;-64
2023/01/30 10:10:48;;;;;;;2.45;1.27;;;19.20;53.40;;;;;;5017986;28;20109;-66
2023/01/30 10:13:26;;;;;;;1.90;1.17;;;19.20;53.90;;;;;;5020652;28;20026;-64
2023/01/30 10:16:15;;;;;;;2.25;1.20;;;19.20;53.40;;;;;;5022560;28;20034;-64
2023/01/30 10:19:02;;;;;;;1.90;1.20;;;19.20;53.40;;;;;;5021921;28;20129;-64
2023/01/30 10:21:52;;;;;;;2.60;1.23;;;19.20;53.40;;;;;;5017665;28;20159;-64
2023/01/30 10:24:42;;;;;;;2.10;1.23;;;19.20;53.30;;;;;;5021252;28;20480;-65
2023/01/30 10:27:14;;;;;;;2.13;1.20;;;19.20;53.30;;;;;;5020350;28;20531;-64
2023/01/30 10:29:46;;;;;;;2.53;1.20;;;19.10;53.30;;;;;;5017142;28;20076;-64
2023/01/30 10:32:17;;;;;;;2.72;1.05;;;19.10;53.20;;;;;;5022362;28;20022;-65
2023/01/30 10:34:50;;;;;;;1.95;1.23;;;19.10;53.20;;;;;;5019326;28;20022;-64
2023/01/30 10:37:34;;;;;;;2.67;1.30;;;19.10;53.20;;;;;;5020459;28;20041;-66
2023/01/30 10:40:12;;;;;;;1.63;1.00;;;19.10;53.20;;;;;;5022679;28;20565;-64
2023/01/30 10:43:12;;;;;;;1.65;0.90;;;19.10;53.20;;;;;;5023482;28;20067;-64
2023/01/30 10:45:49;;;;;;;1.52;1.00;;;19.10;53.00;;;;;;5016008;28;20080;-64
2023/01/30 10:48:33;;;;;;;1.65;1.00;;;19.20;52.90;;;;;;5020415;28;20041;-64
2023/01/30 10:51:04;;;;;;;1.85;1.10;;;19.10;52.70;;;;;;5016554;28;20112;-64
2023/01/30 10:53:45;;;;;;;1.63;1.00;;;19.20;52.80;;;;;;5020307;28;20036;-65
2023/01/30 10:56:17;;;;;;;1.77;1.00;;;19.10;52.80;;;;;;5022394;28;20038;-64
2023/01/30 10:58:57;;;;;;;1.58;1.10;;;19.20;52.80;;;;;;5019117;28;20377;-65
2023/01/30 11:01:37;;;;;;;2.35;1.20;;;19.10;52.80;;;;;;5023540;28;20032;-63
2023/01/30 11:04:03;;;;;;;;;;;19.10;52.80;;;;;;5020571;28;20040;-64
2023/01/30 11:06:31;;;;;;;1.40;1.00;;;19.10;52.70;;;;;;5017154;28;19913;-64
2023/01/30 11:08:56;;;;;;;2.00;1.10;;;19.10;52.80;;;;;;5021293;28;20021;-64
2023/01/30 11:11:50;;;;;;;2.08;1.10;;;19.10;52.70;;;;;;5019494;28;20030;-63
2023/01/30 11:14:16;;;;;;;1.55;1.00;;;19.10;52.70;;;;;;5018127;28;20069;-63
2023/01/30 11:16:55;;;;;;;2.20;1.30;;;19.10;52.70;;;;;;5020164;28;20053;-63
2023/01/30 11:19:31;;;;;;;1.33;1.00;;;19.10;52.70;;;;;;5019944;28;20115;-64
2023/01/30 11:22:01;;;;;;;1.70;1.10;;;19.10;52.70;;;;;;5020593;28;20040;-64
2023/01/30 11:24:37;;;;;;;1.90;1.00;;;19.10;52.70;;;;;;5027813;28;20018;-63
2023/01/30 11:27:15;;;;;;;1.85;1.13;;;19.10;52.70;;;;;;5019726;28;20022;-63
2023/01/30 11:29:41;;;;;;;2.58;1.20;;;19.10;52.70;;;;;;5019075;28;20041;-63
2023/01/30 11:32:24;;;;;;;2.00;1.02;;;19.00;52.70;;;;;;5017541;28;20037;-63
2023/01/30 11:35:08;;;;;;;1.92;1.10;;;19.00;52.70;;;;;;5019445;28;20227;-63
2023/01/30 11:37:39;;;;;;;2.03;1.00;;;19.10;52.70;;;;;;5019773;28;20469;-63
2023/01/30 11:40:16;;;;;;;1.35;0.98;;;19.00;52.70;;;;;;5017211;28;20022;-64
2023/01/30 11:42:50;;;;;;;1.00;0.85;;;19.10;52.70;;;;;;5019055;28;20030;-64
2023/01/30 11:45:24;;;;;;;1.60;0.95;;;19.00;52.60;;;;;;5019196;28;20048;-64
2023/01/30 11:47:58;;;;;;;1.65;1.00;;;19.10;52.50;;;;;;5017872;28;20030;-63
2023/01/30 11:50:31;;;;;;;1.27;0.80;;;19.10;52.50;;;;;;5022225;28;20135;-63
2023/01/30 11:53:01;;;;;;;1.10;0.90;;;19.10;52.40;;;;;;5020361;28;20056;-63
2023/01/30 11:55:27;;;;;;;1.73;0.90;;;19.10;52.50;;;;;;5020398;28;20032;-61
2023/01/30 11:57:57;;;;;;;1.88;1.15;;;19.10;52.40;;;;;;5034604;28;20034;-62
2023/01/30 12:00:42;;;;;;;1.25;0.80;;;19.10;52.50;;;;;;5019442;28;20090;-62
2023/01/30 12:03:16;;;;;;;1.88;0.90;;;19.10;52.50;;;;;;5017945;28;20080;-63
2023/01/30 12:05:45;;;;;;;1.13;0.80;;;19.10;52.50;;;;;;5017984;28;20109;-63
2023/01/30 12:08:25;;;;;;;2.00;1.00;;;19.10;52.60;;;;;;5018638;28;20116;-63
2023/01/30 12:10:57;;;;;;;1.25;0.90;;;19.10;52.70;;;;;;5018523;28;20698;-62
2023/01/30 12:13:44;;;;;;;1.52;0.93;;;19.10;52.70;;;;;;5017078;28;20104;-62
2023/01/30 12:17:00;;;;;;;2.28;0.95;;;19.10;52.90;;;;;;5019114;28;20511;-62
2023/01/30 12:19:46;;;;;;;1.85;0.90;;;19.00;52.90;;;;;;4997897;28;20092;-62
2023/01/30 12:22:37;;;;;;;2.55;1.02;;;19.10;53.00;;;;;;4961564;28;20038;-63
2023/01/30 12:25:11;;;;;;;1.83;0.90;;;19.00;53.10;;;;;;5015866;28;20037;-63
2023/01/30 12:28:02;;;;;;;1.90;1.00;;;19.00;53.10;;;;;;5023856;28;20037;-62
2023/01/30 12:30:34;;;;;;;1.77;0.90;;;19.00;53.10;;;;;;5012716;28;20084;-63
2023/01/30 12:33:03;;;;;;;1.50;1.00;;;19.00;53.20;;;;;;5020245;28;20037;-62
2023/01/30 12:36:01;;;;;;;1.30;0.90;;;19.00;53.20;;;;;;5019563;28;20041;-62
2023/01/30 12:39:10;;;;;;;1.52;0.90;;;19.00;53.20;;;;;;5020788;28;20034;-62
2023/01/30 12:42:17;;;;;;;2.15;0.95;;;19.00;53.20;;;;;;5021830;28;20117;-62
2023/01/30 12:44:52;;;;;;;2.40;1.02;;;19.00;53.30;;;;;;5016067;28;20054;-63
2023/01/30 12:47:23;;;;;;;2.22;0.90;;;19.00;53.30;;;;;;5020931;28;20113;-64
2023/01/30 12:50:13;;;;;;;1.70;0.95;;;19.00;53.30;;;;;;5019653;28;20028;-63
2023/01/30 12:53:07;;;;;;;2.10;1.10;;;19.00;53.20;;;;;;5019810;28;20021;-63
2023/01/30 12:55:48;;;;;;;2.05;1.08;;;19.00;53.20;;;;;;5033979;28;20022;-64
2023/01/30 12:58:41;;;;;;;1.70;1.00;;;19.00;53.20;;;;;;5017976;28;20037;-63
2023/01/30 13:01:43;;;;;;;1.30;0.82;;;19.00;53.20;;;;;;5018069;28;20022;-63
2023/01/30 13:04:32;;;;;;;2.38;0.90;;;19.00;53.10;;;;;;5006082;28;20067;-63
2023/01/30 13:07:07;;;;;;;1.35;0.95;;;19.00;53.10;;;;;;5016884;28;20131;-63
2023/01/30 13:09:38;;;;;;;2.67;1.10;;;19.00;53.10;;;;;;5016888;28;20501;-64
2023/01/30 13:12:04;;;;;;;1.95;1.02;;;19.00;53.40;;;;;;5016916;28;20084;-65
2023/01/30 13:14:58;;;;;;;5.07;1.20;;;18.90;53.10;;;;;;5019320;28;20114;-63
2023/01/30 13:17:36;;;;;;;1.33;0.93;;;18.90;53.30;;;;;;5008413;28;20172;-63